CYSF - Stony Rapids Airport

Pirep is a free, collaborative database of all public and private airports located within the United States. All pilots are welcome to contribute, edit, and improve any airport they have local knowledge about, no registration required.
Are you familiar with this airport? Help out other pilots by adding your local knowledge.
Uploaded photos will be licensed under a CC BY-SA 4.0 license. Please only upload photos you have the rights to use.
Tags
Public
Undocu­mented
METAR / TAF
Webcam
Edit Tags
Food
Camping
Lodging
Car Rental
Bicycles
Swimming
Golfing
Fishing
Hot Springs
Museum
Flying Clubs
Airpark
Upcoming Events
No upcoming events. Is anything happening here soon?
*
*
*

Where exactly on/near the airport is this event taking place?

Is there a webpage with more information for this event?

Who should be contacted for more information?

What is this event all about?

Repeat every
Description
Transient Parking
Fuel Location
Landing & Tie-down Fees
Crew Car Availability
Flying Clubs
WiFi Access
Airport Statistics
Location: Stony Rapids, Saskatchewan
Elevation: 805ft
Runway 06/24: 5,050ft
Warning: This airport was imported from a non-authoritative source. It's public/private status may not be accurate.
Access: Open to the public
Current Weather — VFR
  • Weather data is strictly informational and not for flight planning purposes.
  • METAR
    2024-05-24 19:00:00 CST
    Ceiling Wind Temperature Dewpoint Weather Visbility
    9,400ft 130° @ 9kt 51°F 28°F N/A 9SM
    Clouds: Scattered @ 6,600ft, Scattered @ 7,900ft, Broken @ 9,400ft, Broken @ 11,000ft
    Raw: CYSF 250100Z AUTO 13009KT 9SM SCT066 SCT079 BKN094 BKN110 11/M02 A2982 RMK SLP110
  • TAF
    2024-05-24 18:00:00 CST – 2024-05-25 00:00:00 CST
    Ceiling Wind Weather Visbility
    8,000ft 130° @ 12kt N/A 6SM
    Clouds: Broken @ 8,000ft
    Raw: TAF CYSF 242340Z 2500/2512 13012KT P6SM BKN080 FM250600 10006KT P6SM SCT020 BKN050 TEMPO 2506/2512 P6SM -SHRA BKN020 BKN050 RMK FCST BASED ON AUTO OBS. NXT FCST BY 250600Z
  • TAF
    2024-05-25 00:00:00 CST – 2024-05-25 06:00:00 CST
    Ceiling Wind Weather Visbility
    5,000ft 100° @ 6kt N/A 6SM
    Clouds: Scattered @ 2,000ft, Broken @ 5,000ft
    Raw: TAF CYSF 242340Z 2500/2512 13012KT P6SM BKN080 FM250600 10006KT P6SM SCT020 BKN050 TEMPO 2506/2512 P6SM -SHRA BKN020 BKN050 RMK FCST BASED ON AUTO OBS. NXT FCST BY 250600Z
  • TAF
    2024-05-25 00:00:00 CST – 2024-05-25 06:00:00 CST
    Ceiling Wind Weather Visbility
    2,000ft ° @ kt Light rain showers 6SM
    Clouds: Broken @ 2,000ft, Broken @ 5,000ft
    Raw: TAF CYSF 242340Z 2500/2512 13012KT P6SM BKN080 FM250600 10006KT P6SM SCT020 BKN050 TEMPO 2506/2512 P6SM -SHRA BKN020 BKN050 RMK FCST BASED ON AUTO OBS. NXT FCST BY 250600Z
Click/tap to add an annotation marker to the map
Direct links to live image URLs will be displayed inline on this page. URLs to separate webpages will be linked to.
URL:
Direct links to live image URLs will be displayed inline on this page. URLs to separate webpages will be linked to.
URL:
Comments
Leave a comment What was your experience like at this airport?